createdAt,value
2023-03-03T00:02:11.919Z,46.07
2023-03-03T00:04:41.037Z,42.93
2023-03-03T00:07:09.913Z,42.57
2023-03-03T00:09:38.727Z,41.83
2023-03-03T00:12:23.065Z,41.37
2023-03-03T00:14:52.402Z,41.30
2023-03-03T00:17:24.642Z,43.00
2023-03-03T00:19:54.451Z,40.07
2023-03-03T00:22:31.121Z,41.53
2023-03-03T00:25:02.502Z,42.50
2023-03-03T00:27:51.476Z,45.30
2023-03-03T00:30:25.010Z,44.00
2023-03-03T00:32:55.180Z,45.10
2023-03-03T00:35:35.589Z,44.43
2023-03-03T00:38:14.024Z,44.57
2023-03-03T00:40:43.134Z,41.00
2023-03-03T00:43:21.505Z,41.07
2023-03-03T00:45:52.047Z,39.43
2023-03-03T00:48:27.626Z,38.03
2023-03-03T00:50:57.824Z,38.80
2023-03-03T00:53:28.272Z,37.23
2023-03-03T00:55:57.670Z,37.77
2023-03-03T00:58:28.506Z,38.33
2023-03-03T01:00:59.111Z,38.33
2023-03-03T01:03:41.968Z,37.63
2023-03-03T01:06:12.956Z,37.17
2023-03-03T01:08:42.334Z,37.87
2023-03-03T01:11:14.324Z,38.00
2023-03-03T01:13:47.517Z,38.97
2023-03-03T01:16:16.402Z,38.83
2023-03-03T01:18:45.596Z,39.03
2023-03-03T01:21:14.940Z,40.20
2023-03-03T01:23:43.866Z,38.57
2023-03-03T01:26:12.690Z,40.77
2023-03-03T01:28:43.962Z,40.53
2023-03-03T01:31:12.992Z,40.40
2023-03-03T01:33:41.849Z,39.87
2023-03-03T01:36:11.107Z,40.00
2023-03-03T01:38:40.781Z,40.43
2023-03-03T01:41:09.653Z,40.43
2023-03-03T01:43:47.367Z,39.80
2023-03-03T01:46:53.306Z,38.33
2023-03-03T01:49:26.949Z,38.97
2023-03-03T01:51:58.986Z,37.83
2023-03-03T01:54:32.029Z,38.03
2023-03-03T01:57:14.293Z,38.17
2023-03-03T01:59:49.453Z,40.03
2023-03-03T02:02:19.693Z,41.67
2023-03-03T02:04:48.849Z,42.13
2023-03-03T02:07:19.979Z,44.43
2023-03-03T02:09:56.828Z,43.20
2023-03-03T02:12:35.009Z,44.13
2023-03-03T02:15:27.264Z,43.73
2023-03-03T02:17:58.957Z,43.53
2023-03-03T02:20:45.985Z,43.63
2023-03-03T02:23:23.670Z,43.10
2023-03-03T02:26:11.273Z,43.03
2023-03-03T02:28:42.327Z,44.10
2023-03-03T02:31:16.082Z,44.03
2023-03-03T02:33:48.076Z,43.63
2023-03-03T02:36:19.331Z,45.83
2023-03-03T02:38:53.168Z,45.63
2023-03-03T02:41:34.689Z,49.17
2023-03-03T02:44:07.281Z,49.90
2023-03-03T02:46:55.912Z,50.67
2023-03-03T02:49:27.175Z,50.60
2023-03-03T02:51:56.526Z,49.97
2023-03-03T02:54:31.217Z,49.10
2023-03-03T02:57:03.920Z,48.57
2023-03-03T02:59:34.236Z,48.13
2023-03-03T03:02:10.457Z,50.17
2023-03-03T03:04:39.449Z,55.27
2023-03-03T03:07:08.470Z,59.37
2023-03-03T03:09:39.607Z,54.07
2023-03-03T03:12:10.196Z,48.03
2023-03-03T03:14:39.256Z,46.17
2023-03-03T03:17:09.207Z,50.27
2023-03-03T03:19:38.051Z,56.00
2023-03-03T03:22:07.150Z,57.53
2023-03-03T03:24:37.687Z,55.40
2023-03-03T03:27:11.387Z,52.93
2023-03-03T03:29:42.476Z,54.03
2023-03-03T03:32:14.692Z,52.87
2023-03-03T03:34:43.898Z,53.40
2023-03-03T03:37:13.766Z,53.00
2023-03-03T03:39:44.414Z,54.23
2023-03-03T03:42:33.472Z,56.70
2023-03-03T03:45:03.631Z,58.03
2023-03-03T03:47:33.937Z,58.97
2023-03-03T03:50:02.904Z,63.87
2023-03-03T03:52:31.814Z,60.57
2023-03-03T03:55:00.855Z,59.43
2023-03-03T03:57:30.690Z,59.93
2023-03-03T04:00:01.734Z,61.17
2023-03-03T04:02:31.727Z,61.97
2023-03-03T04:05:19.838Z,60.07
2023-03-03T04:07:49.325Z,61.33
2023-03-03T04:10:20.487Z,64.90
2023-03-03T04:12:50.509Z,75.53
2023-03-03T04:15:25.371Z,63.97
2023-03-03T04:17:54.490Z,58.50
2023-03-03T04:20:23.418Z,54.33
2023-03-03T04:22:52.868Z,53.30
2023-03-03T04:25:22.009Z,53.20
2023-03-03T04:27:53.103Z,52.93
2023-03-03T04:30:25.294Z,52.50
2023-03-03T04:32:57.002Z,50.90
2023-03-03T04:35:28.701Z,49.83
2023-03-03T04:37:58.662Z,47.87
2023-03-03T04:40:28.425Z,48.60
2023-03-03T04:42:57.614Z,48.20
2023-03-03T04:45:28.445Z,47.83
2023-03-03T04:47:57.535Z,47.47
2023-03-03T04:50:26.819Z,46.97
2023-03-03T04:52:56.239Z,48.60
2023-03-03T04:55:25.215Z,45.43
2023-03-03T04:57:54.360Z,45.57
2023-03-03T05:00:23.438Z,44.13
2023-03-03T05:02:54.564Z,44.77
2023-03-03T05:05:24.739Z,46.20
2023-03-03T05:07:57.868Z,48.23
2023-03-03T05:10:27.565Z,45.63
2023-03-03T05:13:01.208Z,44.13
2023-03-03T05:15:42.962Z,46.97
2023-03-03T05:18:30.679Z,47.07
2023-03-03T05:21:08.932Z,50.33
2023-03-03T05:23:38.733Z,49.77
2023-03-03T05:26:07.711Z,61.30
2023-03-03T05:28:36.655Z,40.90
2023-03-03T05:31:05.902Z,34.17
2023-03-03T05:33:36.228Z,40.90
2023-03-03T05:36:05.371Z,47.87
2023-03-03T05:38:53.026Z,43.27
2023-03-03T05:41:22.261Z,47.40
2023-03-03T05:44:09.787Z,40.93
2023-03-03T05:46:38.885Z,42.83
2023-03-03T05:49:09.476Z,51.30
2023-03-03T05:51:38.512Z,50.73
2023-03-03T05:54:07.709Z,46.43
2023-03-03T05:56:36.638Z,42.47
2023-03-03T05:59:05.586Z,36.20
2023-03-03T06:01:34.645Z,38.23
2023-03-03T06:04:03.643Z,35.83
2023-03-03T06:06:34.089Z,36.87
2023-03-03T06:09:03.042Z,42.80
2023-03-03T06:11:32.066Z,32.00
2023-03-03T06:14:01.104Z,29.47
2023-03-03T06:16:30.191Z,38.47
2023-03-03T06:18:59.119Z,41.03
2023-03-03T06:21:28.050Z,39.23
2023-03-03T06:23:58.664Z,39.13
2023-03-03T06:26:27.699Z,38.00
2023-03-03T06:28:56.990Z,31.50
2023-03-03T06:31:26.029Z,27.90
2023-03-03T06:33:55.378Z,27.80
2023-03-03T06:36:25.633Z,29.17
2023-03-03T06:38:54.617Z,29.53
2023-03-03T06:41:24.900Z,26.70
2023-03-03T06:43:53.801Z,28.20
2023-03-03T06:46:23.939Z,31.90
2023-03-03T06:48:52.883Z,27.70
2023-03-03T06:51:27.026Z,28.93
2023-03-03T06:54:15.886Z,30.57
2023-03-03T06:56:47.585Z,30.23
2023-03-03T06:59:18.853Z,30.90
2023-03-03T07:01:49.239Z,32.40
2023-03-03T07:04:29.088Z,31.50
2023-03-03T07:06:58.691Z,33.13
2023-03-03T07:09:29.778Z,34.00
2023-03-03T07:12:03.941Z,33.93
2023-03-03T07:14:55.998Z,33.20
2023-03-03T07:17:27.127Z,34.00
2023-03-03T07:19:56.153Z,35.80
2023-03-03T07:22:30.408Z,34.77
2023-03-03T07:25:02.274Z,34.53
2023-03-03T07:27:34.689Z,32.77
2023-03-03T07:30:23.400Z,37.83
2023-03-03T07:32:56.708Z,33.33
2023-03-03T07:35:47.515Z,32.47
2023-03-03T07:38:24.822Z,33.70
2023-03-03T07:40:55.605Z,33.17
2023-03-03T07:43:35.177Z,33.87
2023-03-03T07:46:18.734Z,35.33
2023-03-03T07:48:47.911Z,35.87
2023-03-03T07:51:25.551Z,36.50
2023-03-03T07:53:55.666Z,35.80
2023-03-03T07:56:31.116Z,36.37
2023-03-03T07:59:03.953Z,37.27
2023-03-03T08:01:43.549Z,39.93
2023-03-03T08:04:19.046Z,44.93
2023-03-03T08:07:16.715Z,46.73
2023-03-03T08:09:51.302Z,46.83
2023-03-03T08:12:43.037Z,47.17
2023-03-03T08:15:29.575Z,50.77
2023-03-03T08:17:58.576Z,50.47
2023-03-03T08:20:48.688Z,49.80
2023-03-03T08:23:19.476Z,45.73
2023-03-03T08:25:49.901Z,46.77
2023-03-03T08:28:19.009Z,48.63
2023-03-03T08:30:50.183Z,50.67
2023-03-03T08:33:20.389Z,47.87
2023-03-03T08:35:50.110Z,46.13
2023-03-03T08:38:22.098Z,47.83
2023-03-03T08:40:52.188Z,45.87
2023-03-03T08:43:23.073Z,45.37
2023-03-03T08:46:12.326Z,46.57
2023-03-03T08:48:41.434Z,43.37
2023-03-03T08:51:10.564Z,40.77
2023-03-03T08:53:39.663Z,42.00
2023-03-03T08:56:10.450Z,43.23
2023-03-03T08:58:41.990Z,46.47
2023-03-03T09:01:17.049Z,46.43
2023-03-03T09:03:46.503Z,43.50
2023-03-03T09:06:15.418Z,41.37
2023-03-03T09:08:44.414Z,43.63
2023-03-03T09:11:15.123Z,46.80
2023-03-03T09:13:44.077Z,39.83
2023-03-03T09:16:16.714Z,35.17
2023-03-03T09:18:46.486Z,35.53
2023-03-03T09:21:23.896Z,39.40
2023-03-03T09:23:57.303Z,34.57
2023-03-03T09:26:31.354Z,33.93
2023-03-03T09:29:11.428Z,36.43
2023-03-03T09:31:46.324Z,33.20
2023-03-03T09:34:23.751Z,36.73
2023-03-03T09:36:53.833Z,34.83
2023-03-03T09:39:24.920Z,31.70
2023-03-03T09:42:21.992Z,33.83
2023-03-03T09:45:06.025Z,35.67
2023-03-03T09:47:53.867Z,40.83
2023-03-03T09:50:33.531Z,37.97
2023-03-03T09:53:12.984Z,45.80
2023-03-03T09:55:52.117Z,45.97
2023-03-03T09:58:35.109Z,41.87
2023-03-03T10:01:20.721Z,43.03
2023-03-03T10:04:17.945Z,49.10
2023-03-03T10:06:50.955Z,50.73
2023-03-03T10:09:43.843Z,50.27
2023-03-03T10:12:19.287Z,51.47
2023-03-03T10:15:09.380Z,50.93
2023-03-03T10:17:49.539Z,52.63
2023-03-03T10:20:37.456Z,51.80
2023-03-03T10:23:28.071Z,53.83
2023-03-03T10:26:08.817Z,52.90
2023-03-03T10:29:00.566Z,57.37
2023-03-03T10:31:41.780Z,58.27
2023-03-03T10:34:22.825Z,58.60
2023-03-03T10:37:01.669Z,57.50
2023-03-03T10:39:50.004Z,55.83
2023-03-03T10:42:33.666Z,59.87
2023-03-03T10:45:19.613Z,63.93
2023-03-03T10:48:12.966Z,64.27
2023-03-03T10:50:52.653Z,61.30
2023-03-03T10:53:31.750Z,60.87
2023-03-03T10:56:51.787Z,61.93
2023-03-03T10:59:55.612Z,60.10
2023-03-03T11:02:34.625Z,60.77
2023-03-03T11:05:26.510Z,58.53
2023-03-03T11:08:01.152Z,57.77
2023-03-03T11:10:47.743Z,60.53
2023-03-03T11:13:32.166Z,69.07
2023-03-03T11:16:18.905Z,72.27
2023-03-03T11:19:02.459Z,69.60
2023-03-03T11:21:36.351Z,65.07
2023-03-03T11:24:27.285Z,66.33
2023-03-03T11:27:15.904Z,63.47
2023-03-03T11:29:58.738Z,64.93
2023-03-03T11:32:38.872Z,69.37
2023-03-03T11:35:24.800Z,68.03
2023-03-03T11:38:03.810Z,68.70
2023-03-03T11:40:43.140Z,68.17
2023-03-03T11:43:35.709Z,66.47
2023-03-03T11:46:10.524Z,71.20
2023-03-03T11:48:47.696Z,70.20
2023-03-03T11:51:23.813Z,71.87
2023-03-03T11:54:02.665Z,70.73
2023-03-03T11:56:40.325Z,58.67
2023-03-03T11:59:50.910Z,70.50
2023-03-03T12:02:44.419Z,73.70
2023-03-03T12:05:21.226Z,63.60
2023-03-03T12:07:59.646Z,62.97
2023-03-03T12:10:37.967Z,58.13
2023-03-03T12:13:15.146Z,69.70
2023-03-03T12:15:53.753Z,63.37
2023-03-03T12:18:51.980Z,60.53
2023-03-03T12:21:36.607Z,54.70
2023-03-03T12:24:20.474Z,50.13
2023-03-03T12:26:55.887Z,51.00
2023-03-03T12:29:30.447Z,60.43
2023-03-03T12:32:18.344Z,52.20
2023-03-03T12:34:54.494Z,51.17
2023-03-03T12:37:40.333Z,70.90
2023-03-03T12:40:17.159Z,53.33
2023-03-03T12:43:10.292Z,56.40
2023-03-03T12:45:57.009Z,47.97
2023-03-03T12:48:38.163Z,46.63
2023-03-03T12:51:16.520Z,45.00
2023-03-03T12:54:23.805Z,47.93
2023-03-03T12:56:56.826Z,45.80
2023-03-03T12:59:37.691Z,45.73
2023-03-03T13:02:30.773Z,46.17
2023-03-03T13:05:08.207Z,50.33
2023-03-03T13:07:43.103Z,43.73
2023-03-03T13:10:20.552Z,43.57
2023-03-03T13:12:57.360Z,43.93
2023-03-03T13:15:32.629Z,44.17
2023-03-03T13:18:31.205Z,43.20
2023-03-03T13:21:07.246Z,41.57
2023-03-03T13:23:48.976Z,41.50
2023-03-03T13:26:24.103Z,43.03
2023-03-03T13:29:13.304Z,41.10
2023-03-03T13:31:47.679Z,40.33
2023-03-03T13:34:26.675Z,41.57
2023-03-03T13:37:02.609Z,40.63
2023-03-03T13:39:35.723Z,40.90
2023-03-03T13:42:09.007Z,45.60
2023-03-03T13:44:42.519Z,42.23
2023-03-03T13:47:20.093Z,41.23
2023-03-03T13:50:02.008Z,41.43
2023-03-03T13:52:35.073Z,38.30
2023-03-03T13:55:15.507Z,37.80
2023-03-03T13:57:51.514Z,37.73
2023-03-03T14:00:33.907Z,39.30
2023-03-03T14:03:18.370Z,40.73
2023-03-03T14:05:49.962Z,38.37
2023-03-03T14:08:39.908Z,37.97
2023-03-03T14:11:12.815Z,40.67
2023-03-03T14:13:51.724Z,38.37
2023-03-03T14:16:37.774Z,42.87
2023-03-03T14:19:15.669Z,41.40
2023-03-03T14:21:51.149Z,43.83
2023-03-03T14:24:23.285Z,42.50
2023-03-03T14:26:54.303Z,43.37
2023-03-03T14:29:32.103Z,38.17
2023-03-03T14:32:39.377Z,39.37
2023-03-03T14:35:20.640Z,40.63
2023-03-03T14:37:51.942Z,40.30
2023-03-03T14:40:24.114Z,42.30
2023-03-03T14:42:56.903Z,44.57
2023-03-03T14:45:44.662Z,46.97
2023-03-03T14:48:18.538Z,47.60
2023-03-03T14:50:52.455Z,49.83
2023-03-03T14:53:34.397Z,48.63
2023-03-03T14:56:26.887Z,50.63
2023-03-03T14:58:56.829Z,49.97
2023-03-03T15:01:34.275Z,49.23
2023-03-03T15:04:05.845Z,50.30
2023-03-03T15:06:42.218Z,51.53
2023-03-03T15:09:32.923Z,54.17
2023-03-03T15:12:05.968Z,54.53
2023-03-03T15:14:39.738Z,62.17
2023-03-03T15:17:31.143Z,55.27
2023-03-03T15:20:25.828Z,51.77
2023-03-03T15:23:05.420Z,50.27
2023-03-03T15:25:43.681Z,52.57
2023-03-03T15:28:29.093Z,52.30
2023-03-03T15:31:05.763Z,50.73
2023-03-03T15:33:39.952Z,53.03
2023-03-03T15:36:16.419Z,52.97
2023-03-03T15:38:54.641Z,51.17
2023-03-03T15:41:35.237Z,53.57
2023-03-03T15:44:16.207Z,55.60
2023-03-03T15:47:06.297Z,53.30
2023-03-03T15:50:21.738Z,54.63
2023-03-03T15:53:06.079Z,60.53
2023-03-03T15:55:48.645Z,58.87
2023-03-03T15:58:44.799Z,60.40
2023-03-03T16:01:25.079Z,70.80
2023-03-03T16:03:59.397Z,66.93
2023-03-03T16:06:42.474Z,69.57
2023-03-03T16:09:25.395Z,64.27
2023-03-03T16:12:01.343Z,57.33
2023-03-03T16:15:00.342Z,56.87
2023-03-03T16:17:40.618Z,54.57
2023-03-03T16:20:20.917Z,50.70
2023-03-03T16:23:10.293Z,53.47
2023-03-03T16:25:51.778Z,72.23
2023-03-03T16:28:26.033Z,72.97
2023-03-03T16:31:03.190Z,57.60
2023-03-03T16:33:44.085Z,52.47
2023-03-03T16:36:26.914Z,54.43
2023-03-03T16:39:20.991Z,56.70
2023-03-03T16:41:57.312Z,54.10
2023-03-03T16:44:39.716Z,53.57
2023-03-03T16:47:31.934Z,53.30
2023-03-03T16:50:18.780Z,53.73
2023-03-03T16:52:53.992Z,63.77
2023-03-03T16:55:29.567Z,62.73
2023-03-03T16:58:10.156Z,61.63
2023-03-03T17:00:46.053Z,63.23
2023-03-03T17:03:41.938Z,63.80
2023-03-03T17:06:20.411Z,70.27
2023-03-03T17:09:00.366Z,107.50
2023-03-03T17:11:36.556Z,92.17
2023-03-03T17:14:25.552Z,96.63
2023-03-03T17:17:02.114Z,90.17
2023-03-03T17:19:47.606Z,101.13
2023-03-03T17:22:26.564Z,103.67
2023-03-03T17:25:18.520Z,103.43
2023-03-03T17:28:23.646Z,88.30
2023-03-03T17:31:03.931Z,88.30
2023-03-03T17:33:56.643Z,94.13
2023-03-03T17:36:34.156Z,112.30
2023-03-03T17:39:19.025Z,102.93
2023-03-03T17:41:57.027Z,123.77
2023-03-03T17:44:39.910Z,143.03
2023-03-03T17:47:13.567Z,144.20
2023-03-03T17:50:13.312Z,133.33
2023-03-03T17:53:10.772Z,125.30
2023-03-03T17:55:52.665Z,118.37
2023-03-03T17:58:45.133Z,96.23
2023-03-03T18:01:32.676Z,91.40
2023-03-03T18:04:26.608Z,98.67
2023-03-03T18:07:14.843Z,91.10
2023-03-03T18:10:01.805Z,80.17
2023-03-03T18:12:43.936Z,76.37
2023-03-03T18:15:45.360Z,73.67
2023-03-03T18:18:34.419Z,65.13
2023-03-03T18:21:10.173Z,64.57
2023-03-03T18:23:43.168Z,65.53
2023-03-03T18:26:40.405Z,71.53
2023-03-03T18:29:22.628Z,60.30
2023-03-03T18:32:05.375Z,65.40
2023-03-03T18:34:41.899Z,57.63
2023-03-03T18:37:33.622Z,54.37
2023-03-03T18:40:31.868Z,53.30
2023-03-03T18:43:01.643Z,50.50
2023-03-03T18:46:16.698Z,49.43
2023-03-03T18:48:53.130Z,49.93
2023-03-03T18:51:55.186Z,48.17
2023-03-03T18:54:34.820Z,48.77
2023-03-03T18:57:18.746Z,50.60
2023-03-03T18:59:58.904Z,50.43
2023-03-03T19:02:42.622Z,51.73
2023-03-03T19:05:23.608Z,56.53
2023-03-03T19:08:01.003Z,56.97
2023-03-03T19:10:51.730Z,55.97
2023-03-03T19:13:47.036Z,54.83
2023-03-03T19:16:40.042Z,54.90
2023-03-03T19:19:14.494Z,61.73
2023-03-03T19:21:48.254Z,48.87
2023-03-03T19:24:33.932Z,50.63
2023-03-03T19:27:20.320Z,53.93
2023-03-03T19:30:22.847Z,57.37
2023-03-03T19:33:32.481Z,56.43
2023-03-03T19:36:26.360Z,51.83
2023-03-03T19:39:10.251Z,59.00
2023-03-03T19:41:56.273Z,62.63
2023-03-03T19:44:44.573Z,59.70
2023-03-03T19:47:30.112Z,58.80
2023-03-03T19:50:10.540Z,57.77
2023-03-03T19:52:44.948Z,56.43
2023-03-03T19:55:25.813Z,57.50
2023-03-03T19:58:06.692Z,60.13
2023-03-03T20:00:42.659Z,66.90
2023-03-03T20:03:47.892Z,63.57
2023-03-03T20:06:38.468Z,78.97
2023-03-03T20:09:19.241Z,63.23
2023-03-03T20:12:04.425Z,64.37
2023-03-03T20:14:45.629Z,68.17
2023-03-03T20:17:36.736Z,63.57
2023-03-03T20:20:18.705Z,63.77
2023-03-03T20:23:18.921Z,64.13
2023-03-03T20:25:52.533Z,71.50
2023-03-03T20:28:53.786Z,65.60
2023-03-03T20:31:31.018Z,68.70
2023-03-03T20:34:10.995Z,90.23
2023-03-03T20:36:47.387Z,80.80
2023-03-03T20:39:25.044Z,71.40
2023-03-03T20:42:06.122Z,69.30
2023-03-03T20:44:55.681Z,66.97
2023-03-03T20:47:36.497Z,64.63
2023-03-03T20:50:17.127Z,64.00
2023-03-03T20:53:00.404Z,62.70
2023-03-03T20:55:44.209Z,65.63
2023-03-03T20:58:19.372Z,61.97
2023-03-03T21:00:54.216Z,61.27
2023-03-03T21:03:32.700Z,61.87
2023-03-03T21:06:03.150Z,60.20
2023-03-03T21:08:55.490Z,58.50
2023-03-03T21:11:41.435Z,61.83
2023-03-03T21:14:19.341Z,65.10
2023-03-03T21:16:48.774Z,65.93
2023-03-03T21:19:27.535Z,63.63
2023-03-03T21:21:57.540Z,62.17
2023-03-03T21:24:50.138Z,64.80
2023-03-03T21:27:29.484Z,64.43
2023-03-03T21:30:13.565Z,61.63
2023-03-03T21:32:45.517Z,59.80
2023-03-03T21:35:15.840Z,57.47
2023-03-03T21:38:03.665Z,58.87
2023-03-03T21:40:32.495Z,62.00
2023-03-03T21:43:03.392Z,59.63
2023-03-03T21:45:32.375Z,61.50
2023-03-03T21:48:03.345Z,64.53
2023-03-03T21:50:32.992Z,68.00
2023-03-03T21:53:01.836Z,68.13
2023-03-03T21:55:31.005Z,67.50
2023-03-03T21:58:00.119Z,68.03
2023-03-03T22:00:30.468Z,67.60
2023-03-03T22:03:00.250Z,69.57
2023-03-03T22:05:29.142Z,70.67
2023-03-03T22:07:58.037Z,71.73
2023-03-03T22:10:27.005Z,70.53
2023-03-03T22:12:56.036Z,68.63
2023-03-03T22:15:24.981Z,68.03
2023-03-03T22:17:56.606Z,70.97
2023-03-03T22:20:25.548Z,67.17
2023-03-03T22:22:54.343Z,69.03
2023-03-03T22:25:23.388Z,68.03
2023-03-03T22:27:52.251Z,69.47
2023-03-03T22:30:21.164Z,70.33
2023-03-03T22:32:52.569Z,68.17
2023-03-03T22:35:23.256Z,70.07
2023-03-03T22:37:52.448Z,72.73
2023-03-03T22:40:21.439Z,77.23
2023-03-03T22:42:50.313Z,81.70
2023-03-03T22:45:19.649Z,84.67
2023-03-03T22:47:48.464Z,80.77
2023-03-03T22:50:17.998Z,69.43
2023-03-03T22:52:48.497Z,65.63
2023-03-03T22:55:17.612Z,62.90
2023-03-03T22:57:46.424Z,61.23
2023-03-03T23:00:16.524Z,60.03
2023-03-03T23:02:45.415Z,58.97
2023-03-03T23:05:14.485Z,59.47
2023-03-03T23:07:43.395Z,59.77
2023-03-03T23:10:14.370Z,58.27
2023-03-03T23:12:43.313Z,60.17
2023-03-03T23:15:14.535Z,60.20
2023-03-03T23:17:44.141Z,62.47
2023-03-03T23:20:15.872Z,63.43
2023-03-03T23:22:44.686Z,64.20
2023-03-03T23:25:15.978Z,66.83
2023-03-03T23:27:45.600Z,65.87
2023-03-03T23:30:16.766Z,65.87
2023-03-03T23:32:45.836Z,66.07
2023-03-03T23:35:15.601Z,63.20
2023-03-03T23:37:45.191Z,64.20
2023-03-03T23:40:17.246Z,64.60
2023-03-03T23:42:46.564Z,61.10
2023-03-03T23:45:15.545Z,61.17
2023-03-03T23:47:44.834Z,63.87
2023-03-03T23:50:15.129Z,60.23
2023-03-03T23:52:44.020Z,61.43
2023-03-03T23:55:14.540Z,59.63
2023-03-03T23:57:43.587Z,59.80
